Time;durP1;ratioP1;P1;durP2;ratioP2;P2;SDS_P1;SDS_P2;PMS_P1;PMS_P2;Temp;Humidity;BMP_temperature;BMP_pressure;BME280_temperature;BME280_humidity;BME280_pressure;Samples;Min_cycle;Max_cycle;Signal;HPM_P1;HPM_P2
2022/06/16 00:02:59;;;;;;;0.30;0.30;;;19.00;99.90;19.50;101703.00;;;;5057781;28;20541;-76
2022/06/16 00:09:50;;;;;;;0.30;0.30;;;19.00;99.90;19.10;101647.00;;;;5061102;28;20278;-76
2022/06/16 00:13:14;;;;;;;0.30;0.30;;;18.80;99.90;19.50;101703.00;;;;5057356;28;20206;-77
2022/06/16 00:16:25;;;;;;;0.30;0.30;;;18.90;99.90;19.30;101628.00;;;;5074288;28;20219;-76
2022/06/16 00:19:43;;;;;;;0.30;0.30;;;18.80;99.90;19.20;101687.00;;;;5058087;28;20186;-76
2022/06/16 00:23:01;;;;;;;0.30;0.30;;;18.80;99.90;18.80;101695.00;;;;5057329;28;20176;-76
2022/06/16 00:26:21;;;;;;;0.30;0.30;;;18.60;99.90;18.80;101653.00;;;;5057201;28;20181;-76
2022/06/16 00:29:25;;;;;;;0.30;0.30;;;18.50;99.90;18.30;101710.00;;;;5057163;28;20526;-76
2022/06/16 00:32:43;;;;;;;1.43;1.33;;;18.30;99.90;18.60;101703.00;;;;5040347;28;20215;-77
2022/06/16 00:35:44;;;;;;;0.30;0.30;;;18.20;99.90;18.80;101713.00;;;;5056834;28;20205;-77
2022/06/16 00:39:03;;;;;;;0.30;0.30;;;18.50;99.90;18.00;101699.00;;;;5057061;28;20188;-76
2022/06/16 00:42:16;;;;;;;1.67;1.33;;;18.40;99.90;18.40;101674.00;;;;5057044;28;20230;-77
2022/06/16 00:45:38;;;;;;;0.30;0.30;;;18.30;99.90;18.80;101711.00;;;;5056710;28;20729;-76
2022/06/16 00:48:48;;;;;;;0.40;0.40;;;18.30;99.90;19.10;101726.00;;;;5074538;28;20551;-76
2022/06/16 00:52:05;;;;;;;0.30;0.30;;;18.40;99.90;19.00;101728.00;;;;5073581;28;20263;-76
2022/06/16 00:55:13;;;;;;;0.30;0.30;;;18.60;99.90;19.30;101722.00;;;;5046761;28;20216;-77
2022/06/16 00:58:32;;;;;;;0.30;0.30;;;18.70;99.90;19.50;101723.00;;;;5073385;28;20193;-76
2022/06/16 01:01:53;;;;;;;0.30;0.30;;;18.90;99.90;19.10;101682.00;;;;5056552;28;20181;-76
2022/06/16 01:05:15;;;;;;;0.30;0.30;;;18.80;99.90;19.20;101720.00;;;;5056193;28;20176;-76
2022/06/16 01:08:36;;;;;;;0.30;0.30;;;18.80;99.90;19.20;101718.00;;;;5056497;28;20182;-76
2022/06/16 01:15:14;;;;;;;0.40;0.40;;;18.90;99.90;19.20;101734.00;;;;5074353;28;20661;-76
2022/06/16 01:18:19;;;;;;;0.30;0.30;;;18.90;99.90;18.10;101715.00;;;;5074035;28;20749;-76
2022/06/16 01:21:05;;;;;;;0.50;0.50;;;18.50;99.90;18.20;101684.00;;;;5042445;28;20192;-76
2022/06/16 01:24:06;;;;;;;0.30;0.30;;;18.20;99.90;18.00;101726.00;;;;5072786;28;20197;-76
2022/06/16 01:27:15;;;;;;;0.30;0.30;;;18.20;99.90;18.20;101726.00;;;;5072924;28;20227;-77
2022/06/16 01:30:19;;;;;;;0.30;0.30;;;18.00;99.90;17.80;101689.00;;;;5073902;28;20547;-76
2022/06/16 01:33:09;;;;;;;0.67;0.67;;;17.90;99.90;17.30;101687.00;;;;5072705;28;20277;-76
2022/06/16 01:36:04;;;;;;;0.30;0.30;;;17.60;99.90;17.20;101688.00;;;;5072635;28;20220;-76
2022/06/16 01:43:10;;;;;;;0.20;0.20;;;17.40;99.90;17.80;101725.00;;;;5071456;28;20201;-76
2022/06/16 01:46:03;;;;;;;0.40;0.40;;;17.60;99.90;18.40;101734.00;;;;5046441;28;20189;-76
2022/06/16 01:49:19;;;;;;;1.07;1.07;;;17.90;99.90;18.20;101738.00;;;;5055043;28;20601;-76
2022/06/16 01:52:48;;;;;;;0.30;0.30;;;17.90;99.90;17.30;101731.00;;;;5055739;28;20292;-76
2022/06/16 01:55:56;;;;;;;0.30;0.30;;;17.70;99.90;17.40;101744.00;;;;5061174;28;20669;-76
2022/06/16 01:59:14;;;;;;;0.37;0.37;;;17.50;99.90;17.50;101750.00;;;;5055718;28;20189;-76
2022/06/16 02:02:37;;;;;;;0.60;0.60;;;17.50;99.90;17.80;101717.00;;;;5056287;28;20206;-76
2022/06/16 02:05:28;;;;;;;0.60;0.60;;;17.50;99.90;17.60;101771.00;;;;5055375;28;20217;-76
2022/06/16 02:08:42;;;;;;;0.30;0.30;;;17.70;99.90;18.30;101785.00;;;;5055531;28;20208;-76
2022/06/16 02:12:03;;;;;;;0.30;0.30;;;17.90;99.90;18.70;101780.00;;;;5038694;28;20208;-76
2022/06/16 02:15:38;;;;;;;0.50;0.50;;;18.10;99.90;18.00;101787.00;;;;5055332;28;20183;-76
2022/06/16 02:18:42;;;;;;;0.53;0.53;;;18.00;99.90;17.30;101781.00;;;;5073266;28;20211;-76
2022/06/16 02:21:40;;;;;;;0.93;0.93;;;17.60;99.90;17.20;101741.00;;;;5055462;28;20179;-76
2022/06/16 02:25:01;;;;;;;0.70;0.67;;;17.30;99.90;17.10;101771.00;;;;5073250;28;20179;-76
2022/06/16 02:28:20;;;;;;;0.30;0.30;;;17.20;99.90;16.90;101731.00;;;;5055306;28;20185;-76
2022/06/16 02:31:23;;;;;;;0.30;0.30;;;17.00;99.90;16.90;101784.00;;;;5055365;28;20172;-76
2022/06/16 02:34:12;;;;;;;0.30;0.30;;;16.90;99.90;16.90;101784.00;;;;5072178;28;20189;-76
2022/06/16 02:37:15;;;;;;;0.30;0.30;;;17.00;99.90;16.80;101792.00;;;;5071575;28;20196;-77
2022/06/16 02:40:04;;;;;;;0.40;0.40;;;16.80;99.90;17.20;101793.00;;;;5072148;28;20195;-77
2022/06/16 02:42:50;;;;;;;0.30;0.30;;;16.90;99.90;17.80;101798.00;;;;5073274;28;20205;-76
2022/06/16 02:45:50;;;;;;;0.30;0.30;;;17.20;99.90;17.30;101796.00;;;;5071871;28;20190;-76
2022/06/16 02:48:52;;;;;;;0.40;0.40;;;17.30;99.90;17.90;101805.00;;;;5056456;28;20183;-77
2022/06/16 02:52:05;;;;;;;0.30;0.30;;;17.40;99.90;17.00;101788.00;;;;5071364;28;20305;-77
2022/06/16 02:55:10;;;;;;;0.30;0.30;;;17.20;99.90;16.40;101793.00;;;;5038895;28;20669;-76
2022/06/16 02:58:52;;;;;;;0.30;0.30;;;16.70;99.90;16.80;101793.00;;;;5073320;28;20186;-76
2022/06/16 03:02:02;;;;;;;0.30;0.30;;;16.60;99.90;16.80;101802.00;;;;5046993;28;20278;-76
2022/06/16 03:05:12;;;;;;;0.30;0.30;;;16.60;99.90;17.30;101804.00;;;;5038496;28;20189;-76
2022/06/16 03:08:02;;;;;;;0.30;0.30;;;16.90;99.90;16.70;101799.00;;;;5055270;28;20260;-76
2022/06/16 03:11:21;;;;;;;0.20;0.20;;;16.70;99.90;16.50;101801.00;;;;5054304;28;20306;-76
2022/06/16 03:14:44;;;;;;;0.30;0.30;;;16.50;99.90;16.50;101808.00;;;;5054760;28;20629;-76
2022/06/16 03:17:51;;;;;;;0.30;0.30;;;16.40;99.90;16.30;101786.00;;;;5071543;28;20270;-76
2022/06/16 03:21:12;;;;;;;0.30;0.30;;;16.40;99.90;16.40;101741.00;;;;5059000;28;20186;-76
2022/06/16 03:24:30;;;;;;;0.30;0.30;;;16.30;99.90;16.40;101796.00;;;;5058593;28;20181;-76
2022/06/16 03:31:05;;;;;;;0.40;0.40;;;16.20;99.90;16.10;101812.00;;;;5050739;28;20187;-77
2022/06/16 03:34:24;;;;;;;0.30;0.30;;;16.10;99.90;16.40;101798.00;;;;5055366;28;20592;-77
2022/06/16 03:37:25;;;;;;;0.30;0.30;;;16.10;99.90;16.40;101807.00;;;;5055018;28;20179;-76
2022/06/16 03:40:29;;;;;;;0.30;0.30;;;16.20;99.90;16.80;101804.00;;;;5054995;28;20185;-76
2022/06/16 03:43:40;;;;;;;0.30;0.30;;;16.50;99.90;17.00;101817.00;;;;5054783;28;20232;-76
2022/06/16 03:46:52;;;;;;;0.20;0.20;;;16.70;99.90;17.00;101831.00;;;;5054813;28;20269;-76
2022/06/16 03:50:00;;;;;;;0.40;0.40;;;16.80;99.90;17.10;101786.00;;;;5056032;28;20664;-76
2022/06/16 03:53:19;;;;;;;0.30;0.30;;;16.90;99.90;17.30;101830.00;;;;5054595;28;20207;-76
2022/06/16 03:56:38;;;;;;;0.30;0.30;;;16.90;99.90;17.40;101827.00;;;;5054915;28;20175;-77
2022/06/16 03:59:46;;;;;;;0.30;0.30;;;16.90;99.90;17.50;101838.00;;;;5054320;28;20178;-76
2022/06/16 04:06:51;;;;;;;0.30;0.30;;;17.00;99.90;17.50;101834.00;;;;5054686;28;20197;-77
2022/06/16 04:09:59;;;;;;;0.30;0.30;;;17.00;99.90;16.90;101832.00;;;;5054463;28;20542;-77
2022/06/16 04:13:10;;;;;;;0.30;0.30;;;16.80;99.90;17.10;101835.00;;;;5054294;28;20198;-76
2022/06/16 04:16:28;;;;;;;0.30;0.30;;;16.80;99.90;17.40;101845.00;;;;5054563;28;20179;-76
2022/06/16 04:23:10;;;;;;;0.30;0.30;;;16.80;99.90;17.60;101859.00;;;;5054651;28;20608;-76
2022/06/16 04:26:17;;;;;;;0.30;0.30;;;17.20;99.90;18.20;101880.00;;;;5054199;28;20242;-76
2022/06/16 04:32:50;;;;;;;0.20;0.20;;;18.40;99.90;20.50;101922.00;;;;5054212;28;20231;-76
2022/06/16 04:36:09;;;;;;;0.20;0.20;;;19.40;99.90;20.40;101957.00;;;;5054076;28;20204;-77
2022/06/16 04:39:30;;;;;;;0.10;0.10;;;20.00;99.90;21.40;101966.00;;;;5054215;28;20179;-76
2022/06/16 04:42:38;;;;;;;1.45;0.50;;;20.40;99.90;21.10;101996.00;;;;5055219;28;20649;-77
2022/06/16 04:45:47;;;;;;;0.13;0.13;;;20.70;99.90;21.50;101992.00;;;;5053958;28;20189;-77
2022/06/16 04:49:05;;;;;;;0.20;0.20;;;20.70;99.90;21.40;101994.00;;;;5053747;28;20201;-76
2022/06/16 04:52:27;;;;;;;0.10;0.10;;;20.70;99.90;22.90;102030.00;;;;5053782;28;20194;-76
2022/06/16 04:55:21;;;;;;;0.10;0.10;;;21.30;99.90;23.30;101988.00;;;;5053579;28;20281;-76
2022/06/16 04:58:25;;;;;;;0.10;0.10;;;22.00;99.90;20.40;102003.00;;;;5053311;28;20227;-77
2022/06/16 05:01:46;;;;;;;0.10;0.10;;;21.10;99.90;21.80;102019.00;;;;5053939;28;20248;-76
2022/06/16 05:05:10;;;;;;;0.25;0.25;;;20.90;99.90;22.20;102039.00;;;;5053548;28;20661;-76
2022/06/16 05:08:34;;;;;;;0.10;0.10;;;21.50;99.90;23.80;102058.00;;;;5054592;28;20209;-77
2022/06/16 05:15:09;;;;;;;0.10;0.10;;;24.20;99.90;25.00;102055.00;;;;5053336;28;20595;-77
2022/06/16 05:18:27;;;;;;;0.10;0.10;;;24.20;99.90;25.60;102083.00;;;;5053849;28;20245;-77
2022/06/16 05:22:02;;;;;;;0.32;0.32;;;24.60;99.90;25.80;102079.00;;;;5052992;28;20749;-76
2022/06/16 05:25:24;;;;;;;0.10;0.10;;;25.20;99.90;25.60;102061.00;;;;5053181;28;20170;-76
2022/06/16 05:28:32;;;;;;;0.60;0.60;;;24.90;99.90;26.90;102072.00;;;;5054393;28;20249;-78
2022/06/16 05:31:57;;;;;;;0.10;0.10;;;25.80;99.90;28.80;102104.00;;;;5052943;28;20182;-75
2022/06/16 05:35:05;;;;;;;0.10;0.10;;;27.00;99.90;27.90;102099.00;;;;5052638;28;20183;-74
2022/06/16 05:38:06;;;;;;;0.20;0.20;;;26.80;99.90;27.20;102096.00;;;;5052899;28;20261;-75
2022/06/16 05:41:56;;;;;;;0.17;0.17;;;27.50;99.90;25.00;102125.00;;;;5052006;28;20204;-75
2022/06/16 05:45:17;;;;;;;0.50;0.50;;;25.40;99.90;25.80;102099.00;;;;5052697;28;20189;-75
2022/06/16 05:48:35;;;;;;;0.10;0.10;;;26.00;99.90;26.80;102106.00;;;;5053716;28;20220;-75
2022/06/16 05:52:18;;;;;;;0.30;0.30;;;26.20;99.90;26.70;102114.00;;;;5052579;28;20194;-75
2022/06/16 05:55:36;;;;;;;0.47;0.35;;;26.00;99.90;25.40;102096.00;;;;5052139;28;20261;-75
2022/06/16 05:58:44;;;;;;;0.90;0.90;;;25.40;99.90;24.20;102131.00;;;;5052362;28;20193;-75
2022/06/16 06:02:03;;;;;;;0.47;0.40;;;24.70;99.90;23.70;102116.00;;;;5052234;28;20186;-74
2022/06/16 06:05:08;;;;;;;0.30;0.30;;;23.70;99.90;23.00;102112.00;;;;5052212;28;20182;-76
2022/06/16 06:19:25;;;;;;;0.20;0.20;;;23.80;99.90;24.00;102140.00;;;;5053428;28;20192;-76
2022/06/16 06:25:29;;;;;;;0.73;0.73;;;23.50;99.90;22.30;102134.00;;;;5053055;28;20228;-76
2022/06/16 06:28:35;;;;;;;1.15;1.05;;;23.00;99.90;23.70;102113.00;;;;5052093;28;20232;-76
2022/06/16 06:31:53;;;;;;;0.30;0.30;;;23.70;99.90;22.90;102159.00;;;;5051765;28;20186;-76
2022/06/16 06:35:12;;;;;;;0.95;0.85;;;23.40;99.90;23.80;102174.00;;;;5052070;28;20570;-76
2022/06/16 06:41:54;;;;;;;7.03;1.67;;;23.60;99.90;23.10;102176.00;;;;5052399;28;20344;-76
2022/06/16 06:45:13;;;;;;;1.08;1.00;;;24.10;99.90;24.10;102165.00;;;;5052118;28;20643;-76
2022/06/16 06:48:31;;;;;;;0.63;0.63;;;23.60;99.90;24.30;102160.00;;;;5052045;28;20605;-76
2022/06/16 06:51:40;;;;;;;0.32;0.32;;;24.10;99.90;26.00;102201.00;;;;5051628;28;20190;-77
2022/06/16 06:54:59;;;;;;;0.10;0.10;;;25.00;99.90;28.80;102183.00;;;;5037315;28;20243;-77
2022/06/16 06:58:07;;;;;;;0.10;0.10;;;27.10;99.90;30.10;102181.00;;;;5055989;28;20182;-77
2022/06/16 07:04:41;;;;;;;0.10;0.10;;;30.30;98.60;31.50;102171.00;;;;5056029;28;20190;-75
2022/06/16 07:08:00;;;;;;;0.10;0.10;;;30.60;95.80;30.60;102188.00;;;;5055253;28;20190;-75
2022/06/16 07:11:09;;;;;;;0.10;0.10;;;30.30;94.90;31.30;102184.00;;;;5055414;28;20186;-75
2022/06/16 07:14:29;;;;;;;0.20;0.20;;;29.70;96.00;29.20;102194.00;;;;5055560;28;20190;-75
2022/06/16 07:17:38;;;;;;;0.10;0.10;;;29.60;95.10;30.30;102161.00;;;;5055367;28;20518;-75
2022/06/16 07:20:59;;;;;;;1.65;1.10;;;28.90;93.20;27.90;102153.00;;;;5055528;28;20244;-75
2022/06/16 07:24:08;;;;;;;0.10;0.10;;;29.00;92.70;30.30;102190.00;;;;5055009;28;20182;-75
2022/06/16 07:27:32;;;;;;;0.52;0.43;;;29.20;93.40;30.50;102198.00;;;;5055224;28;20225;-75
2022/06/16 07:30:25;;;;;;;0.25;0.25;;;29.80;92.90;30.30;102194.00;;;;5054660;28;20224;-76
2022/06/16 07:33:44;;;;;;;0.25;0.25;;;29.50;93.00;27.60;102207.00;;;;5054709;28;20222;-75
2022/06/16 07:37:06;;;;;;;0.47;0.47;;;29.70;91.60;25.20;102232.00;;;;5054786;28;20548;-75
2022/06/16 07:40:17;;;;;;;0.10;0.10;;;27.60;92.70;28.00;102246.00;;;;5055203;28;20539;-74
2022/06/16 07:43:25;;;;;;;0.30;0.30;;;26.80;94.70;27.60;102251.00;;;;5055031;28;20224;-75
2022/06/16 07:46:46;;;;;;;0.60;0.60;;;27.90;94.00;30.40;102245.00;;;;5055108;28;20170;-75
2022/06/16 07:50:08;;;;;;;0.20;0.20;;;28.90;93.90;31.40;102231.00;;;;5054586;28;20190;-75
2022/06/16 07:53:16;;;;;;;2.03;0.75;;;30.00;92.60;28.20;102255.00;;;;5053988;28;20209;-75
2022/06/16 07:56:34;;;;;;;0.10;0.10;;;29.10;92.40;29.60;102260.00;;;;5054861;28;20182;-75
2022/06/16 07:59:58;;;;;;;0.20;0.20;;;29.80;92.50;31.50;102257.00;;;;5054610;28;20186;-76
2022/06/16 08:03:19;;;;;;;2.85;1.50;;;30.80;91.90;31.60;102244.00;;;;5054400;28;20189;-75
2022/06/16 08:06:26;;;;;;;1.60;1.02;;;30.50;91.50;27.50;102278.00;;;;5053902;28;20335;-75
2022/06/16 08:09:45;;;;;;;0.95;0.95;;;29.00;92.00;30.30;102270.00;;;;5054806;28;20186;-74
2022/06/16 08:12:56;;;;;;;0.40;0.40;;;29.40;92.40;27.60;102281.00;;;;5054426;28;20210;-75
2022/06/16 08:16:16;;;;;;;1.48;1.00;;;28.40;93.20;26.50;102275.00;;;;5054362;28;20182;-74
2022/06/16 08:19:37;;;;;;;1.23;1.17;;;26.60;94.00;25.50;102288.00;;;;5054261;28;20182;-75
2022/06/16 08:22:47;;;;;;;3.67;1.08;;;26.50;94.10;25.90;102283.00;;;;5037949;28;20190;-76
2022/06/16 08:26:08;;;;;;;1.55;1.10;;;26.40;94.50;26.20;102277.00;;;;5054141;28;20181;-76
2022/06/16 08:29:21;;;;;;;0.45;0.45;;;25.70;94.70;26.90;102274.00;;;;5053030;28;20194;-76
2022/06/16 08:32:30;;;;;;;0.88;0.82;;;25.60;96.20;25.90;102261.00;;;;5053883;28;20276;-76
2022/06/16 08:35:51;;;;;;;0.70;0.70;;;26.20;94.90;24.80;102267.00;;;;5054011;28;20197;-76
2022/06/16 08:39:10;;;;;;;2.03;1.48;;;25.50;94.20;24.10;102290.00;;;;5053376;28;20717;-77
2022/06/16 08:42:15;;;;;;;2.80;1.50;;;24.70;94.30;24.30;102287.00;;;;5054288;28;20228;-76
2022/06/16 08:45:13;;;;;;;0.90;0.80;;;24.90;93.80;25.20;102290.00;;;;5054934;28;20205;-76
2022/06/16 08:52:17;;;;;;;0.17;0.17;;;25.20;92.80;26.50;102270.00;;;;5054703;28;20205;-74
2022/06/16 08:55:20;;;;;;;0.22;0.22;;;26.40;92.40;27.90;102253.00;;;;5053732;28;20623;-74
2022/06/16 08:58:24;;;;;;;0.10;0.10;;;27.00;92.90;25.70;102258.00;;;;5054717;28;20196;-74
2022/06/16 09:01:41;;;;;;;2.67;0.60;;;26.20;91.90;26.80;102274.00;;;;5051213;28;20194;-74
2022/06/16 09:04:49;;;;;;;0.45;0.45;;;25.80;93.20;27.70;102269.00;;;;5052998;28;20186;-74
2022/06/16 09:07:34;;;;;;;0.15;0.15;;;26.60;92.60;28.70;102230.00;;;;5036633;28;20645;-74
2022/06/16 09:13:34;;;;;;;1.30;1.20;;;28.10;90.00;26.90;102225.00;;;;5054338;28;20297;-74
2022/06/16 09:16:28;;;;;;;0.10;0.10;;;27.90;86.00;28.90;102237.00;;;;5052712;28;20178;-75
2022/06/16 09:19:45;;;;;;;0.10;0.10;;;27.80;89.50;27.80;102279.00;;;;5054057;28;20170;-74
2022/06/16 09:22:33;;;;;;;0.50;0.50;;;27.60;88.00;25.20;102279.00;;;;4953994;29;20237;-74
2022/06/16 09:25:45;;;;;;;2.67;1.20;;;26.20;88.50;26.40;102282.00;;;;4954192;28;20185;-74
2022/06/16 09:28:52;;;;;;;0.10;0.10;;;26.10;89.20;27.10;102276.00;;;;5035099;28;20735;-74
2022/06/16 09:32:03;;;;;;;0.20;0.20;;;26.40;86.30;28.00;102274.00;;;;5052148;28;20212;-74
2022/06/16 09:35:35;;;;;;;0.10;0.10;;;27.80;87.80;29.80;102258.00;;;;5053700;28;20174;-74
2022/06/16 09:38:21;;;;;;;0.10;0.10;;;28.70;89.70;31.70;102218.00;;;;4956185;28;20196;-74
2022/06/16 09:45:15;;;;;;;0.38;0.38;;;31.90;80.00;30.10;102249.00;;;;4962056;28;20239;-75
2022/06/16 09:48:09;;;;;;;0.10;0.10;;;32.00;78.10;27.30;102262.00;;;;4970853;28;20787;-74
2022/06/16 09:51:04;;;;;;;0.60;0.60;;;28.50;79.90;25.60;102237.00;;;;4956995;28;20291;-74
2022/06/16 09:53:43;;;;;;;2.05;1.45;;;26.70;82.60;25.60;102281.00;;;;4972688;28;20281;-74
2022/06/16 09:56:51;;;;;;;0.63;0.50;;;26.00;84.40;27.50;102284.00;;;;4973044;28;20189;-76
2022/06/16 10:00:05;;;;;;;0.73;0.73;;;27.10;84.20;29.70;102268.00;;;;4956252;28;20226;-76
2022/06/16 10:03:33;;;;;;;0.63;0.63;;;28.90;81.60;28.00;102261.00;;;;4956082;28;20347;-76
2022/06/16 10:06:32;;;;;;;0.63;0.52;;;29.70;80.40;26.70;102228.00;;;;4972811;28;20195;-76
2022/06/16 10:09:42;;;;;;;0.47;0.47;;;27.70;81.90;28.80;102228.00;;;;5053460;28;20202;-76
2022/06/16 10:13:00;;;;;;;1.35;1.25;;;28.00;81.80;25.30;102269.00;;;;5052284;28;20210;-76
2022/06/16 10:16:10;;;;;;;0.55;0.45;;;25.90;82.90;27.60;102279.00;;;;5051896;28;20194;-76
2022/06/16 10:19:13;;;;;;;0.63;0.60;;;26.70;84.80;27.90;102271.00;;;;4953340;29;20189;-74
2022/06/16 10:33:37;;;;;;;0.40;0.40;;;28.50;79.10;29.30;102266.00;;;;5070695;28;20573;-77
2022/06/16 10:36:53;;;;;;;0.32;0.32;;;28.80;79.10;28.60;102266.00;;;;5050680;28;20182;-76
2022/06/16 10:40:21;;;;;;;0.95;0.95;;;28.50;79.70;29.60;102267.00;;;;5065636;28;20181;-76
2022/06/16 10:43:48;;;;;;;0.50;0.50;;;28.70;79.00;28.80;102265.00;;;;5049537;28;20652;-76
2022/06/16 10:46:55;;;;;;;0.30;0.30;;;29.40;78.00;29.50;102243.00;;;;5048758;28;20182;-74
2022/06/16 10:50:00;;;;;;;0.17;0.17;;;28.90;77.80;29.20;102254.00;;;;5049741;28;20205;-74
2022/06/16 10:53:07;;;;;;;0.63;0.63;;;28.30;79.10;29.40;102219.00;;;;5047866;28;20684;-73
2022/06/16 10:56:14;;;;;;;0.10;0.10;;;29.20;77.10;29.30;102249.00;;;;5049084;28;20166;-73
2022/06/16 11:03:05;;;;;;;0.10;0.10;;;28.90;77.60;30.40;102255.00;;;;5048888;28;20611;-73
2022/06/16 11:06:07;;;;;;;0.10;0.10;;;29.80;76.40;31.20;102240.00;;;;5048359;28;20209;-73
2022/06/16 11:09:04;;;;;;;0.52;0.52;;;30.20;76.40;28.20;102236.00;;;;5048870;28;20174;-74
2022/06/16 11:12:16;;;;;;;0.75;0.75;;;29.60;75.30;30.50;102231.00;;;;5048510;28;20293;-74
2022/06/16 11:15:33;;;;;;;0.10;0.10;;;29.60;77.10;29.90;102246.00;;;;5047385;28;20664;-73
2022/06/16 11:18:26;;;;;;;0.20;0.20;;;29.90;77.30;32.80;102223.00;;;;5048881;28;20252;-73
2022/06/16 11:21:32;;;;;;;1.40;0.75;;;31.30;76.90;30.80;102245.00;;;;5048592;28;20202;-74
2022/06/16 11:24:43;;;;;;;0.10;0.10;;;32.20;73.00;30.00;102249.00;;;;5049134;28;20264;-74
2022/06/16 11:28:00;;;;;;;0.63;0.52;;;31.20;73.50;28.40;102253.00;;;;5046789;28;20285;-74
2022/06/16 11:30:50;;;;;;;0.10;0.10;;;28.80;76.20;30.60;102260.00;;;;5048830;28;20586;-74
2022/06/16 11:37:25;;;;;;;0.40;0.40;;;31.20;74.70;30.50;102271.00;;;;5026345;28;20186;-73
2022/06/16 11:40:16;;;;;;;0.20;0.20;;;31.20;72.80;31.90;102263.00;;;;5048289;28;20178;-74
2022/06/16 11:43:14;;;;;;;0.50;0.50;;;31.90;71.90;29.80;102250.00;;;;5044346;28;20218;-74
2022/06/16 11:46:20;;;;;;;0.70;0.70;;;30.40;73.30;31.60;102267.00;;;;5035010;28;20638;-74
2022/06/16 11:53:10;;;;;;;0.10;0.10;;;31.50;72.30;31.40;102284.00;;;;5012356;28;20225;-74
2022/06/16 11:59:24;;;;;;;0.65;0.65;;;29.70;73.20;29.40;102288.00;;;;5012682;28;20197;-74
2022/06/16 12:02:16;;;;;;;0.10;0.10;;;29.30;73.30;29.50;102253.00;;;;5013807;28;20200;-73
2022/06/16 12:05:07;;;;;;;0.20;0.20;;;28.70;75.20;29.80;102276.00;;;;5013995;28;20195;-74
2022/06/16 12:08:00;;;;;;;0.38;0.38;;;29.20;75.50;29.60;102280.00;;;;5013711;28;20189;-74
2022/06/16 12:10:51;;;;;;;0.10;0.10;;;28.90;73.20;29.70;102279.00;;;;5013669;28;20187;-74
2022/06/16 12:13:44;;;;;;;0.50;0.50;;;28.70;75.10;27.50;102284.00;;;;5013180;28;20179;-74
2022/06/16 12:16:57;;;;;;;0.10;0.10;;;27.80;75.30;26.80;102285.00;;;;5013658;28;20179;-73
2022/06/16 12:19:56;;;;;;;0.68;0.68;;;26.60;76.60;27.90;102289.00;;;;4988706;28;20332;-73
2022/06/16 12:22:43;;;;;;;0.40;0.40;;;26.90;77.50;28.30;102296.00;;;;5033718;28;20665;-74
2022/06/16 12:25:30;;;;;;;0.55;0.55;;;27.20;77.00;28.00;102292.00;;;;5034249;28;20191;-73
2022/06/16 12:28:21;;;;;;;0.38;0.38;;;27.40;76.80;27.40;102264.00;;;;5033879;28;20616;-73
2022/06/16 12:31:07;;;;;;;0.30;0.30;;;27.30;77.60;28.20;102292.00;;;;5050615;28;20580;-74
2022/06/16 12:34:14;;;;;;;0.20;0.20;;;27.10;76.90;27.00;102291.00;;;;5035218;28;20344;-73
2022/06/16 12:37:31;;;;;;;0.10;0.10;;;26.80;76.80;27.60;102264.00;;;;5017895;28;20541;-74
2022/06/16 12:41:17;;;;;;;0.20;0.20;;;26.40;77.70;27.10;102288.00;;;;5034222;28;20242;-73
2022/06/16 12:44:35;;;;;;;0.28;0.28;;;26.50;76.80;27.60;102298.00;;;;5050419;28;20179;-73
2022/06/16 12:48:09;;;;;;;0.45;0.38;;;26.70;77.60;26.60;102295.00;;;;5029469;28;20202;-73
2022/06/16 12:51:20;;;;;;;0.32;0.32;;;26.30;77.30;26.90;102300.00;;;;5003019;28;20332;-74
2022/06/16 12:55:35;;;;;;;0.90;0.80;;;26.10;78.00;27.10;102304.00;;;;5066668;28;20191;-74
2022/06/16 12:58:30;;;;;;;0.50;0.50;;;26.10;77.60;25.90;102290.00;;;;4938512;29;20268;-74
2022/06/16 13:01:36;;;;;;;0.40;0.40;;;25.90;77.70;27.20;102279.00;;;;4954009;29;20200;-73
2022/06/16 13:04:43;;;;;;;2.45;0.75;;;26.10;78.30;27.80;102242.00;;;;4995994;28;20237;-74
2022/06/16 13:08:00;;;;;;;1.23;0.63;;;26.60;77.40;26.20;102265.00;;;;4996662;28;20230;-74
2022/06/16 13:11:12;;;;;;;0.40;0.40;;;26.10;78.50;26.20;102277.00;;;;4980181;28;20555;-76
2022/06/16 13:14:32;;;;;;;0.25;0.25;;;25.80;78.10;26.90;102266.00;;;;5012277;28;20195;-76
2022/06/16 13:17:59;;;;;;;0.43;0.43;;;26.00;78.90;27.80;102280.00;;;;5012441;28;20190;-77
2022/06/16 13:21:04;;;;;;;2.05;1.05;;;26.60;80.20;26.90;102292.00;;;;5024993;28;20206;-74
2022/06/16 13:26:57;;;;;;;0.93;0.90;;;26.60;79.50;27.20;102282.00;;;;5034200;28;20286;-75
2022/06/16 13:29:53;;;;;;;0.28;0.28;;;26.50;78.60;27.90;102273.00;;;;5034153;28;20210;-75
2022/06/16 13:32:54;;;;;;;0.57;0.57;;;26.90;79.50;28.40;102241.00;;;;5032406;28;20666;-75
2022/06/16 13:35:48;;;;;;;0.40;0.40;;;27.20;78.70;27.50;102280.00;;;;5032925;28;20630;-74
2022/06/16 13:38:32;;;;;;;0.52;0.52;;;26.80;77.30;27.10;102252.00;;;;5016776;28;20329;-74
2022/06/16 13:41:42;;;;;;;0.20;0.20;;;26.60;76.40;27.70;102294.00;;;;5034114;28;20179;-75
2022/06/16 13:44:29;;;;;;;0.20;0.20;;;26.60;76.30;27.70;102296.00;;;;5032537;28;20167;-76
2022/06/16 13:47:15;;;;;;;0.10;0.10;;;26.60;76.60;28.20;102288.00;;;;5033822;28;20171;-76
2022/06/16 13:50:08;;;;;;;0.13;0.13;;;26.90;75.30;27.30;102285.00;;;;5033830;28;20209;-75
2022/06/16 13:53:22;;;;;;;0.93;0.93;;;26.80;76.00;25.80;102278.00;;;;5032944;28;20218;-75
2022/06/16 13:59:10;;;;;;;0.17;0.17;;;25.70;78.50;27.40;102277.00;;;;5032695;28;20197;-75
2022/06/16 14:02:13;;;;;;;0.60;0.60;;;26.20;76.90;27.20;102275.00;;;;5032134;28;20203;-75
2022/06/16 14:05:25;;;;;;;0.20;0.20;;;26.50;76.40;27.70;102278.00;;;;5032095;28;20182;-75
2022/06/16 14:11:26;;;;;;;0.10;0.10;;;26.60;76.60;28.00;102251.00;;;;5033208;28;20186;-75
2022/06/16 14:15:06;;;;;;;0.50;0.45;;;27.00;78.00;27.30;102269.00;;;;5033448;28;20187;-75
2022/06/16 14:18:01;;;;;;;0.20;0.20;;;26.60;76.90;27.90;102281.00;;;;5032191;28;20190;-76
2022/06/16 14:21:13;;;;;;;0.45;0.43;;;26.60;78.10;26.90;102262.00;;;;5031675;28;20195;-76
2022/06/16 14:24:36;;;;;;;1.05;0.95;;;26.80;77.60;27.30;102244.00;;;;5031805;28;20230;-77
2022/06/16 14:27:50;;;;;;;0.55;0.40;;;26.50;77.80;27.40;102276.00;;;;5031803;28;20198;-76
2022/06/16 14:30:52;;;;;;;0.20;0.20;;;26.60;77.70;28.50;102261.00;;;;5015957;28;20711;-76
2022/06/16 14:33:38;;;;;;;0.10;0.10;;;27.10;77.50;27.60;102282.00;;;;5032337;28;20657;-77
2022/06/16 14:36:56;;;;;;;2.47;2.05;;;27.00;77.20;28.40;102287.00;;;;5031720;28;20190;-77
2022/06/16 14:40:20;;;;;;;0.10;0.10;;;27.50;76.60;28.60;102293.00;;;;4995219;28;20196;-76
2022/06/16 14:43:31;;;;;;;6.57;6.15;;;27.60;76.90;27.30;102304.00;;;;5011361;28;20198;-76
2022/06/16 14:46:34;;;;;;;0.40;0.40;;;27.20;77.70;27.10;102308.00;;;;5010919;28;20188;-76
2022/06/16 14:49:58;;;;;;;0.20;0.20;;;26.60;78.30;27.50;102310.00;;;;4995017;28;20187;-76
2022/06/16 14:53:15;;;;;;;0.40;0.40;;;26.50;78.90;26.50;102302.00;;;;5020824;28;20608;-76
2022/06/16 14:59:36;;;;;;;0.10;0.10;;;26.60;79.40;28.40;102314.00;;;;5032833;28;20277;-76
2022/06/16 15:02:57;;;;;;;0.40;0.40;;;27.20;79.20;28.10;102311.00;;;;5031352;28;20281;-76
2022/06/16 15:06:10;;;;;;;0.10;0.10;;;27.20;79.10;28.80;102307.00;;;;5031622;28;20213;-76
2022/06/16 15:09:22;;;;;;;0.40;0.40;;;27.40;79.30;28.30;102300.00;;;;5031315;28;20174;-76
2022/06/16 15:12:42;;;;;;;0.50;0.50;;;27.60;78.80;27.50;102271.00;;;;5031246;28;20253;-76
2022/06/16 15:16:02;;;;;;;0.70;0.70;;;26.80;79.00;28.10;102275.00;;;;5031636;28;20175;-76
2022/06/16 15:19:11;;;;;;;0.75;0.75;;;27.30;79.60;28.00;102263.00;;;;5035269;28;20178;-76
2022/06/16 15:22:32;;;;;;;3.10;2.20;;;27.50;79.30;28.10;102288.00;;;;5018562;28;20186;-76
2022/06/16 15:25:55;;;;;;;0.45;0.40;;;27.40;79.10;27.10;102264.00;;;;5051683;28;20191;-76
2022/06/16 15:29:07;;;;;;;0.17;0.17;;;27.20;79.30;27.60;102298.00;;;;5018876;28;20186;-76
2022/06/16 15:36:08;;;;;;;0.63;0.50;;;26.90;80.70;26.80;102292.00;;;;5035308;28;20222;-76
2022/06/16 15:39:13;;;;;;;0.68;0.68;;;26.60;79.70;27.10;102252.00;;;;5035194;28;20569;-76